Ludell, Kansas
Current Conditions -  °F | °C
As of 4:35 AM on Thursday 27 Nov 2014 (Local Time) from KCBK Reporting Station
Clear Clear  
Wind Chill: 18°   Ceiling: Unl
Heat Index: 25°   Visibility: 10mi
Dew Point: 23°   Wind: 6mph
Humidity: 93%   Direction: 200°SSW
Pressure: 30.35"   Gusts: NA
Location:  39.86°N, 100.96°W
Report Text: KCBK 271035Z AUTO 20005KT 10SM CLR M04/M05 A3035 RMK AO2
Loading
Personal Weather Stations






























Interactive Weather Map New forecast layout! Learn more

10-Day Weather Forecast

Advertisements
Track Severe Weather on mobile